Time;durP1;ratioP1;P1;durP2;ratioP2;P2;SDS_P1;SDS_P2;PMS_P1;PMS_P2;Temp;Humidity;BMP_temperature;BMP_pressure;BME280_temperature;BME280_humidity;BME280_pressure;Samples;Min_cycle;Max_cycle;Signal;HPM_P1;HPM_P2
2022/08/31 00:04:00;;;;;;;5.82;2.70;;;;;;;19.26;70.67;101163.22;685943;28;4519;-78
2022/08/31 00:04:23;;;;;;;3.83;2.30;;;;;;;19.28;70.95;101156.97;687830;28;1261;-78
2022/08/31 00:04:44;;;;;;;4.03;2.60;;;;;;;19.27;71.28;101165.84;690555;28;1301;-78
2022/08/31 00:05:06;;;;;;;4.82;2.60;;;;;;;19.28;70.90;101162.28;686440;28;1330;-78
2022/08/31 00:05:26;;;;;;;4.50;2.67;;;;;;;19.29;70.62;101158.72;687723;28;1128;-78
2022/08/31 00:05:47;;;;;;;4.40;2.60;;;;;;;19.29;70.94;101155.22;680495;28;1637;-79
2022/08/31 00:06:08;;;;;;;5.40;2.70;;;;;;;19.30;70.39;101159.56;679162;28;1178;-78
2022/08/31 00:06:30;;;;;;;5.43;2.70;;;;;;;19.27;70.88;101157.88;675092;28;1465;-79
2022/08/31 00:06:51;;;;;;;5.13;2.67;;;;;;;19.27;70.57;101159.69;674589;29;4447;-79
2022/08/31 00:07:11;;;;;;;4.00;2.47;;;;;;;19.24;70.70;101160.63;677152;29;1180;-80
2022/08/31 00:07:33;;;;;;;4.60;2.57;;;;;;;19.24;70.50;101160.63;681929;28;1113;-78
2022/08/31 00:07:54;;;;;;;5.03;2.70;;;;;;;19.22;70.63;101162.50;682159;28;1607;-78
2022/08/31 00:08:17;;;;;;;4.55;2.75;;;;;;;19.21;70.81;101158.94;681804;28;1086;-79
2022/08/31 00:08:37;;;;;;;4.40;2.65;;;;;;;19.22;70.65;101158.03;682420;28;1454;-80
2022/08/31 00:08:59;;;;;;;4.95;2.47;;;;;;;19.24;70.29;101158.00;683034;28;1332;-78
2022/08/31 00:09:19;;;;;;;4.75;2.60;;;;;;;19.22;70.51;101149.25;679803;28;987;-79
2022/08/31 00:09:40;;;;;;;4.35;2.40;;;;;;;19.21;70.67;101158.94;684234;28;4301;-78
2022/08/31 00:10:12;;;;;;;4.73;2.57;;;;;;;19.21;70.55;101156.31;685269;28;1064;-78
2022/08/31 00:10:33;;;;;;;4.05;2.60;;;;;;;19.22;70.37;101152.75;683996;28;1298;-78
2022/08/31 00:10:54;;;;;;;4.37;2.47;;;;;;;19.21;70.52;101158.09;689207;28;1130;-78
2022/08/31 00:11:15;;;;;;;5.20;2.50;;;;;;;19.21;70.47;101161.59;687787;28;1348;-79
2022/08/31 00:11:36;;;;;;;4.82;2.50;;;;;;;19.20;70.42;101153.72;685682;28;1742;-78
2022/08/31 00:11:56;;;;;;;5.67;2.60;;;;;;;19.21;70.37;101160.75;682414;28;1384;-81
2022/08/31 00:12:16;;;;;;;4.60;2.50;;;;;;;19.21;70.41;101161.59;678335;29;1181;-77
2022/08/31 00:12:37;;;;;;;4.05;2.38;;;;;;;19.21;70.51;101158.94;676455;28;4567;-79
2022/08/31 00:12:57;;;;;;;5.10;2.70;;;;;;;19.21;70.24;101158.09;683292;28;1288;-80
2022/08/31 00:13:21;;;;;;;4.85;2.78;;;;;;;19.22;70.39;101157.19;679639;29;986;-78
2022/08/31 00:13:42;;;;;;;4.45;2.50;;;;;;;19.24;71.07;101160.63;679616;28;1272;-80
2022/08/31 00:14:06;;;;;;;5.07;2.47;;;;;;;19.26;70.29;101157.94;682523;28;1252;-78
2022/08/31 00:14:26;;;;;;;4.32;2.55;;;;;;;19.26;70.21;101157.94;679914;29;1434;-78
2022/08/31 00:14:47;;;;;;;4.93;2.45;;;;;;;19.25;70.34;101167.69;681196;28;1312;-79
2022/08/31 00:15:10;;;;;;;4.57;2.47;;;;;;;19.24;70.50;101155.34;681500;28;1295;-78
2022/08/31 00:15:30;;;;;;;4.72;2.53;;;;;;;19.27;70.92;101165.84;681476;28;976;-78
2022/08/31 00:15:52;;;;;;;5.45;2.70;;;;;;;19.27;71.46;101149.06;682402;28;4515;-81
2022/08/31 00:16:12;;;;;;;5.22;2.83;;;;;;;19.30;71.15;101164.88;679644;28;1252;-78
2022/08/31 00:16:35;;;;;;;4.87;2.57;;;;;;;19.28;70.92;101148.16;680445;28;3630;-77
2022/08/31 00:16:55;;;;;;;4.20;2.60;;;;;;;19.29;70.71;101155.22;683409;28;1160;-78
2022/08/31 00:17:16;;;;;;;4.70;2.63;;;;;;;19.28;70.82;101154.31;680896;28;1265;-78
2022/08/31 00:17:37;;;;;;;4.90;2.58;;;;;;;19.28;70.93;101151.66;681467;28;1180;-78
2022/08/31 00:17:58;;;;;;;5.65;2.70;;;;;;;19.26;70.83;101157.94;679547;28;1181;-79
2022/08/31 00:18:19;;;;;;;5.65;2.85;;;;;;;19.26;71.14;101153.53;681991;28;1357;-78
2022/08/31 00:18:39;;;;;;;5.30;2.67;;;;;;;19.22;70.88;101152.75;686050;28;4895;-78
2022/08/31 00:19:00;;;;;;;4.10;2.53;;;;;;;19.21;70.84;101155.44;685474;28;1533;-78
2022/08/31 00:19:20;;;;;;;4.10;2.50;;;;;;;19.21;71.39;101156.31;679553;28;1149;-78
2022/08/31 00:19:41;;;;;;;4.70;2.60;;;;;;;19.20;71.92;101151.06;680100;29;1413;-79
2022/08/31 00:20:04;;;;;;;5.78;2.65;;;;;;;19.18;71.70;101158.22;682586;28;1374;-81
2022/08/31 00:20:27;;;;;;;4.03;2.60;;;;;;;19.18;71.41;101151.13;679933;28;1300;-77
2022/08/31 00:20:48;;;;;;;4.95;2.63;;;;;;;19.17;71.55;101156.47;681923;28;1350;-78
2022/08/31 00:21:08;;;;;;;4.70;2.55;;;;;;;19.16;71.16;101145.00;683791;28;1230;-79
2022/08/31 00:21:29;;;;;;;5.33;2.73;;;;;;;19.18;71.40;101150.25;682699;28;1378;-77
2022/08/31 00:21:49;;;;;;;4.22;2.70;;;;;;;19.18;71.46;101151.13;678505;28;4362;-79
2022/08/31 00:22:10;;;;;;;4.63;2.60;;;;;;;19.23;71.32;101153.59;677733;28;1422;-78
2022/08/31 00:22:30;;;;;;;4.63;2.60;;;;;;;19.26;71.03;101148.22;680001;28;1250;-77
2022/08/31 00:22:51;;;;;;;4.20;2.50;;;;;;;19.27;71.12;101159.69;683063;28;1436;-78
2022/08/31 00:23:14;;;;;;;5.10;2.60;;;;;;;19.26;71.03;101148.22;684150;28;1985;-78
2022/08/31 00:23:34;;;;;;;5.18;2.55;;;;;;;19.33;70.91;101147.09;685603;28;1441;-78
2022/08/31 00:23:55;;;;;;;4.73;2.63;;;;;;;19.33;70.58;101151.53;687514;28;912;-78
2022/08/31 00:24:15;;;;;;;4.85;2.60;;;;;;;19.33;70.39;101147.09;685243;28;1123;-80
2022/08/31 00:24:36;;;;;;;4.03;2.55;;;;;;;19.32;70.57;101144.50;685283;28;4473;-77
2022/08/31 00:24:56;;;;;;;4.97;2.67;;;;;;;19.30;70.77;101149.84;686076;28;1294;-78
2022/08/31 00:25:17;;;;;;;5.18;2.50;;;;;;;19.29;70.47;101147.25;685163;28;1398;-77
2022/08/31 00:25:46;;;;;;;4.70;2.50;;;;;;;19.27;70.64;101149.94;682894;28;1291;-79
2022/08/31 00:26:06;;;;;;;4.38;2.47;;;;;;;19.27;70.96;101155.22;682228;28;1379;-77
2022/08/31 00:26:27;;;;;;;4.05;2.30;;;;;;;19.26;71.36;101153.53;681253;28;1294;-79
2022/08/31 00:26:47;;;;;;;5.13;2.50;;;;;;;19.27;71.36;101146.41;683188;28;1304;-80
2022/08/31 00:27:07;;;;;;;5.25;2.70;;;;;;;19.29;71.48;101152.56;682919;28;1131;-79
2022/08/31 00:27:28;;;;;;;5.17;2.70;;;;;;;19.29;71.33;101153.41;685473;28;1182;-79
2022/08/31 00:27:48;;;;;;;4.57;2.75;;;;;;;19.29;71.24;101157.84;681500;28;4349;-77
2022/08/31 00:28:10;;;;;;;4.03;2.63;;;;;;;19.27;71.43;101149.94;682491;28;1076;-78
2022/08/31 00:28:30;;;;;;;4.13;2.60;;;;;;;19.30;71.31;101149.84;682911;28;1355;-78
2022/08/31 00:28:51;;;;;;;5.60;2.60;;;;;;;19.29;71.55;101145.47;682111;28;1479;-78
2022/08/31 00:29:12;;;;;;;4.50;2.70;;;;;;;19.28;72.12;101150.81;683030;28;1155;-79
2022/08/31 00:29:33;;;;;;;4.70;2.60;;;;;;;19.26;72.05;101148.22;683917;28;1295;-78
2022/08/31 00:29:53;;;;;;;4.82;2.60;;;;;;;19.26;72.15;101145.56;682940;28;892;-78
2022/08/31 00:30:13;;;;;;;4.50;2.80;;;;;;;19.26;71.67;101149.97;679013;28;1342;-77
2022/08/31 00:30:35;;;;;;;4.67;2.70;;;;;;;19.27;71.65;101149.06;682206;28;1301;-78
2022/08/31 00:30:55;;;;;;;4.15;2.65;;;;;;;19.25;71.94;101154.44;681992;28;4364;-77
2022/08/31 00:31:16;;;;;;;5.27;2.60;;;;;;;19.26;72.06;101153.53;682192;28;1277;-78
2022/08/31 00:31:36;;;;;;;5.60;2.85;;;;;;;19.26;71.83;101157.94;680572;29;1224;-79
2022/08/31 00:31:57;;;;;;;5.20;2.90;;;;;;;19.24;72.53;101150.03;679888;28;1311;-77
2022/08/31 00:32:17;;;;;;;4.80;2.75;;;;;;;19.21;72.20;101148.34;681035;28;1062;-80
2022/08/31 00:32:38;;;;;;;5.30;2.73;;;;;;;19.20;72.51;101153.72;679892;28;1244;-78
2022/08/31 00:32:59;;;;;;;6.07;2.85;;;;;;;19.22;72.31;101151.88;680917;28;1298;-77
2022/08/31 00:33:19;;;;;;;5.45;2.90;;;;;;;19.23;71.90;101148.28;679877;28;1247;-79
2022/08/31 00:33:41;;;;;;;4.33;2.70;;;;;;;19.26;72.68;101148.22;678999;28;4330;-78
2022/08/31 00:34:01;;;;;;;4.70;2.60;;;;;;;19.29;72.05;101142.81;682424;28;1243;-79
2022/08/31 00:34:22;;;;;;;5.03;2.50;;;;;;;19.28;71.84;101159.63;683214;28;1171;-77
2022/08/31 00:34:42;;;;;;;4.00;2.50;;;;;;;19.31;71.89;101138.31;683395;28;1197;-78
2022/08/31 00:35:05;;;;;;;4.10;2.60;;;;;;;19.30;72.04;101147.19;681873;28;1173;-78
2022/08/31 00:35:30;;;;;;;4.20;2.70;;;;;;;19.27;71.84;101147.28;681419;28;1410;-78
2022/08/31 00:35:50;;;;;;;4.32;2.70;;;;;;;19.24;71.84;101142.09;681490;28;1185;-78
2022/08/31 00:36:12;;;;;;;4.43;2.70;;;;;;;19.26;71.35;101149.97;684076;28;1226;-79
2022/08/31 00:36:33;;;;;;;3.72;2.40;;;;;;;19.22;71.67;101141.28;685191;28;1366;-78
2022/08/31 00:36:53;;;;;;;4.33;2.57;;;;;;;19.25;71.25;101149.13;683076;28;4504;-81
2022/08/31 00:37:14;;;;;;;5.68;2.72;;;;;;;19.22;71.30;101144.78;684112;28;1269;-78
2022/08/31 00:37:35;;;;;;;4.70;2.90;;;;;;;19.22;72.27;101143.94;682431;28;1587;-78
2022/08/31 00:37:56;;;;;;;4.70;2.50;;;;;;;19.20;72.15;101133.41;684494;28;1251;-79
2022/08/31 00:38:16;;;;;;;4.18;2.40;;;;;;;19.19;72.56;101138.72;682934;28;1291;-78
2022/08/31 00:38:39;;;;;;;4.97;2.70;;;;;;;19.22;72.89;101138.63;682300;28;805;-78
2022/08/31 00:38:59;;;;;;;4.72;2.60;;;;;;;19.21;73.61;101135.09;679321;28;1557;-78
2022/08/31 00:39:20;;;;;;;4.55;2.50;;;;;;;19.19;73.72;101146.66;679221;28;1172;-77
2022/08/31 00:39:41;;;;;;;4.93;2.65;;;;;;;19.17;75.12;101143.22;677432;29;4525;-78
2022/08/31 00:40:03;;;;;;;4.72;2.58;;;;;;;19.16;74.37;101133.53;680468;28;1299;-78
2022/08/31 00:40:24;;;;;;;4.35;2.85;;;;;;;19.15;75.74;101140.63;680448;28;1189;-81
2022/08/31 00:40:46;;;;;;;5.20;2.92;;;;;;;19.11;76.44;101146.09;683048;28;1095;-79
2022/08/31 00:41:12;;;;;;;4.40;2.78;;;;;;;19.08;76.46;101133.78;682888;28;1438;-78
2022/08/31 00:41:36;;;;;;;5.55;2.60;;;;;;;19.02;79.54;101142.81;681747;28;1339;-79
2022/08/31 00:41:57;;;;;;;6.35;2.90;;;;;;;19.03;80.55;101135.72;678207;28;1181;-79
2022/08/31 00:42:18;;;;;;;6.65;3.10;;;;;;;19.00;79.99;101144.63;685244;28;1341;-78
2022/08/31 00:42:38;;;;;;;6.18;3.00;;;;;;;19.02;80.75;101133.97;688086;28;4296;-79
2022/08/31 00:42:59;;;;;;;6.93;3.20;;;;;;;18.94;83.51;101147.50;689100;28;1091;-78
2022/08/31 00:43:38;;;;;;;6.93;3.30;;;;;;;18.84;85.35;101138.06;687260;28;1981;-78
2022/08/31 00:44:02;;;;;;;6.68;3.20;;;;;;;18.77;86.02;101133.88;682348;28;1253;-79
2022/08/31 00:44:22;;;;;;;7.30;3.30;;;;;;;18.66;87.03;101139.50;683576;28;1003;-81
2022/08/31 00:44:43;;;;;;;7.10;3.35;;;;;;;18.65;87.48;101151.00;683040;28;1293;-79
2022/08/31 00:45:04;;;;;;;6.67;3.60;;;;;;;18.58;87.71;101133.56;682789;28;782;-77
2022/08/31 00:45:25;;;;;;;6.55;3.60;;;;;;;18.37;93.66;101150.06;685422;28;1290;-78
2022/08/31 00:45:46;;;;;;;6.60;3.80;;;;;;;18.26;93.04;101141.56;681670;28;4387;-77
2022/08/31 00:46:08;;;;;;;5.70;3.60;;;;;;;18.25;93.56;101141.59;679520;29;1391;-79
2022/08/31 00:46:34;;;;;;;5.25;3.45;;;;;;;18.22;92.51;101139.94;677909;29;1168;-78
2022/08/31 00:46:55;;;;;;;5.82;3.45;;;;;;;18.22;92.08;101147.88;675841;29;1338;-78
2022/08/31 00:47:15;;;;;;;6.93;3.60;;;;;;;18.20;92.87;101139.09;676956;29;1207;-78
2022/08/31 00:47:36;;;;;;;7.38;3.70;;;;;;;18.15;93.26;101141.00;679568;28;1655;-76
2022/08/31 00:47:56;;;;;;;9.77;4.20;;;;;;;18.01;97.28;101139.63;683604;28;1288;-77
2022/08/31 00:48:17;;;;;;;9.70;4.20;;;;;;;17.92;96.80;101144.31;682893;28;1541;-78
2022/08/31 00:48:43;;;;;;;6.93;3.93;;;;;;;17.76;96.84;101141.19;679814;28;4396;-77
2022/08/31 00:49:06;;;;;;;7.75;3.75;;;;;;;17.78;95.90;101140.22;677136;29;1576;-80
2022/08/31 00:49:33;;;;;;;7.22;3.95;;;;;;;17.78;96.22;101142.03;677336;28;1439;-79
2022/08/31 00:49:53;;;;;;;8.80;4.00;;;;;;;17.67;96.35;101150.25;678153;29;1370;-79
2022/08/31 00:50:17;;;;;;;8.03;3.87;;;;;;;17.63;98.58;101152.09;677166;29;1198;-79
2022/08/31 00:50:38;;;;;;;6.65;3.80;;;;;;;17.63;97.72;101143.28;676130;29;1235;-78
2022/08/31 00:50:59;;;;;;;7.55;4.03;;;;;;;17.40;100.00;101151.81;677502;29;1288;-79
2022/08/31 00:51:19;;;;;;;8.55;4.43;;;;;;;17.29;100.00;101138.88;679592;28;1265;-80
2022/08/31 00:51:45;;;;;;;8.03;4.30;;;;;;;17.21;100.00;101138.19;682189;28;4517;-79
2022/08/31 00:52:10;;;;;;;9.48;4.38;;;;;;;17.16;100.00;101135.66;686427;28;1532;-80
2022/08/31 00:52:36;;;;;;;9.23;4.50;;;;;;;16.93;100.00;101137.06;686535;28;1355;-80
2022/08/31 00:53:00;;;;;;;7.85;4.50;;;;;;;16.84;100.00;101139.91;685792;28;848;-80
2022/08/31 00:53:20;;;;;;;7.47;4.55;;;;;;;16.80;100.00;101143.53;687714;28;1325;-80
2022/08/31 00:53:43;;;;;;;8.27;4.77;;;;;;;16.73;100.00;101134.88;686192;28;1066;-80
2022/08/31 00:54:07;;;;;;;9.40;4.63;;;;;;;16.69;100.00;101142.00;686660;28;1522;-79
2022/08/31 00:54:34;;;;;;;7.25;4.47;;;;;;;16.69;100.00;101139.34;686878;28;1505;-80
2022/08/31 00:55:06;;;;;;;7.13;4.50;;;;;;;16.58;100.00;101148.44;685738;28;5436;-79
2022/08/31 00:55:30;;;;;;;7.65;4.50;;;;;;;16.46;100.00;101139.88;687108;28;1358;-81
2022/08/31 00:55:51;;;;;;;6.75;4.63;;;;;;;16.49;100.00;101146.84;687866;28;1229;-80
2022/08/31 00:56:11;;;;;;;9.00;4.77;;;;;;;16.49;100.00;101145.09;687771;28;1452;-80
2022/08/31 00:56:34;;;;;;;9.20;4.40;;;;;;;16.53;100.00;101151.16;683532;28;1259;-80
2022/08/31 00:56:55;;;;;;;7.78;4.43;;;;;;;16.40;100.00;101149.69;678023;28;1375;-80
2022/08/31 00:57:16;;;;;;;8.65;4.40;;;;;;;16.32;100.00;101144.56;679357;29;1318;-81
2022/08/31 00:57:40;;;;;;;8.40;4.50;;;;;;;16.39;100.00;101138.25;679961;28;4444;-80
2022/08/31 00:58:05;;;;;;;8.07;4.60;;;;;;;16.52;100.00;101141.53;679369;28;1431;-80
2022/08/31 00:58:25;;;;;;;9.32;4.40;;;;;;;16.56;100.00;101147.56;680697;28;1180;-80
2022/08/31 00:58:48;;;;;;;8.83;4.80;;;;;;;16.39;100.00;101140.88;683049;28;1308;-80
2022/08/31 00:59:09;;;;;;;7.30;4.70;;;;;;;16.33;100.00;101151.59;680818;28;961;-79
2022/08/31 00:59:30;;;;;;;6.55;4.80;;;;;;;16.31;100.00;101138.44;679357;29;1546;-80
2022/08/31 00:59:50;;;;;;;8.20;4.77;;;;;;;16.23;100.00;101140.38;680369;28;1236;-81
2022/08/31 01:00:15;;;;;;;8.55;4.75;;;;;;;16.20;100.00;101150.09;679823;28;1288;-80
2022/08/31 01:00:37;;;;;;;8.27;5.00;;;;;;;16.18;100.00;101147.50;680852;28;4317;-80
2022/08/31 01:00:59;;;;;;;7.28;4.70;;;;;;;16.28;100.00;101137.63;679962;28;1240;-80
2022/08/31 01:01:20;;;;;;;7.60;4.75;;;;;;;16.28;100.00;101149.06;681367;28;1287;-80
2022/08/31 01:01:41;;;;;;;7.88;5.03;;;;;;;16.22;100.00;101149.16;679970;29;1307;-80
2022/08/31 01:02:03;;;;;;;9.15;4.93;;;;;;;16.23;100.00;101150.06;679897;29;1235;-79
2022/08/31 01:02:23;;;;;;;9.75;4.80;;;;;;;16.26;100.00;101150.84;681801;28;1284;-82
2022/08/31 01:02:44;;;;;;;8.13;4.63;;;;;;;16.23;100.00;101150.06;679802;28;1276;-80
2022/08/31 01:03:07;;;;;;;8.98;4.60;;;;;;;16.26;100.00;101144.72;683087;28;1295;-80
2022/08/31 01:03:27;;;;;;;7.90;4.97;;;;;;;16.34;100.00;101154.19;679079;29;1979;-80
2022/08/31 01:03:48;;;;;;;7.17;4.70;;;;;;;16.42;100.00;101147.88;679031;28;4487;-81
2022/08/31 01:04:09;;;;;;;7.57;4.63;;;;;;;16.38;100.00;101144.47;679703;29;1224;-80
2022/08/31 01:04:29;;;;;;;9.50;5.07;;;;;;;16.42;100.00;101148.78;680369;28;1255;-81
2022/08/31 01:04:50;;;;;;;9.07;5.05;;;;;;;16.42;100.00;101140.84;683064;28;1207;-80
2022/08/31 01:05:12;;;;;;;9.17;4.80;;;;;;;16.34;100.00;101145.41;678975;28;1190;-80
2022/08/31 01:05:34;;;;;;;8.48;5.18;;;;;;;16.30;100.00;101139.31;682968;28;1397;-80
2022/08/31 01:05:54;;;;;;;7.95;5.00;;;;;;;16.23;100.00;101145.63;682831;28;1180;-80
2022/08/31 01:06:16;;;;;;;8.32;5.13;;;;;;;16.17;100.00;101146.63;682523;28;1224;-81
2022/08/31 01:06:38;;;;;;;7.82;4.82;;;;;;;16.14;100.00;101140.53;680921;28;4322;-80
2022/08/31 01:07:00;;;;;;;6.70;5.10;;;;;;;16.21;100.00;101138.66;682576;28;1199;-81
2022/08/31 01:07:23;;;;;;;11.10;5.22;;;;;;;16.27;100.00;101139.41;681526;28;1283;-80
2022/08/31 01:07:48;;;;;;;9.27;4.80;;;;;;;16.20;100.00;101145.72;682217;28;1382;-80
2022/08/31 01:08:08;;;;;;;8.00;5.30;;;;;;;16.21;100.00;101155.34;682644;28;1237;-80
2022/08/31 01:08:29;;;;;;;7.50;5.10;;;;;;;16.22;100.00;101143.03;683046;28;1155;-81
2022/08/31 01:08:52;;;;;;;6.00;4.57;;;;;;;16.22;100.00;101141.25;683101;28;1411;-81
2022/08/31 01:09:13;;;;;;;7.72;4.78;;;;;;;16.11;100.00;101137.97;682357;28;1245;-80
2022/08/31 01:09:38;;;;;;;8.02;4.75;;;;;;;16.03;100.00;101146.03;683030;28;1235;-81
2022/08/31 01:09:59;;;;;;;7.20;4.78;;;;;;;16.02;100.00;101136.41;685514;28;4750;-80
2022/08/31 01:10:23;;;;;;;7.20;5.00;;;;;;;16.11;100.00;101146.75;685551;28;1433;-82
2022/08/31 01:10:45;;;;;;;8.18;4.75;;;;;;;16.15;100.00;101137.00;683386;28;1291;-81
2022/08/31 01:11:05;;;;;;;7.85;4.95;;;;;;;16.19;100.00;101138.69;685551;28;1495;-81
2022/08/31 01:11:27;;;;;;;7.00;4.77;;;;;;;16.22;100.00;101132.47;687392;28;1276;-80
2022/08/31 01:11:48;;;;;;;6.68;4.68;;;;;;;16.21;100.00;101141.28;685242;28;1084;-80
2022/08/31 01:12:10;;;;;;;7.15;4.70;;;;;;;16.17;100.00;101143.09;682214;28;1440;-82
2022/08/31 01:12:31;;;;;;;6.35;4.78;;;;;;;16.21;100.00;101134.22;683350;28;911;-80
2022/08/31 01:13:01;;;;;;;7.82;5.05;;;;;;;16.20;100.00;101132.53;678698;28;4325;-81
2022/08/31 01:13:22;;;;;;;7.38;5.07;;;;;;;16.13;100.00;101134.41;680161;28;1237;-81
2022/08/31 01:13:43;;;;;;;7.07;5.03;;;;;;;16.11;100.00;101133.56;682414;28;1281;-80
2022/08/31 01:14:07;;;;;;;7.93;5.00;;;;;;;16.12;100.00;101142.34;677444;28;1544;-80
2022/08/31 01:14:28;;;;;;;7.88;5.20;;;;;;;16.09;100.00;101142.41;680917;28;1260;-81
2022/08/31 01:14:49;;;;;;;8.15;5.05;;;;;;;16.04;100.00;101139.00;678401;28;1394;-80
2022/08/31 01:15:10;;;;;;;7.32;5.30;;;;;;;16.08;100.00;101135.41;684325;28;1038;-80
2022/08/31 01:15:33;;;;;;;7.63;5.03;;;;;;;16.06;100.00;101132.81;684407;28;841;-80
2022/08/31 01:16:00;;;;;;;7.75;5.15;;;;;;;16.06;100.00;101139.81;684390;28;4434;-79
2022/08/31 01:16:35;;;;;;;8.32;5.22;;;;;;;16.11;100.00;101133.56;684533;28;1331;-81
2022/08/31 01:16:56;;;;;;;7.03;4.80;;;;;;;16.08;100.00;101138.03;681572;28;1201;-81
2022/08/31 01:17:17;;;;;;;6.47;5.07;;;;;;;16.05;100.00;101141.59;682478;28;1319;-80
2022/08/31 01:17:39;;;;;;;7.35;5.15;;;;;;;16.10;100.00;101145.03;680438;28;1447;-80
2022/08/31 01:18:02;;;;;;;7.78;5.20;;;;;;;16.09;100.00;101158.22;679360;29;1286;-81
2022/08/31 01:18:23;;;;;;;7.25;5.15;;;;;;;16.04;100.00;101153.03;682893;28;1340;-80
2022/08/31 01:18:47;;;;;;;7.03;4.85;;;;;;;16.12;100.00;101159.03;681060;28;4422;-81
2022/08/31 01:19:19;;;;;;;7.35;4.50;;;;;;;16.19;100.00;101170.34;681990;28;1313;-81
2022/08/31 01:19:46;;;;;;;7.63;4.53;;;;;;;16.21;100.00;101134.22;682787;28;1572;-80
2022/08/31 01:20:25;;;;;;;6.22;4.88;;;;;;;16.27;100.00;101142.03;681314;28;1481;-80
2022/08/31 01:20:48;;;;;;;7.70;4.90;;;;;;;16.23;100.00;101144.78;679493;29;1280;-81
2022/08/31 01:21:20;;;;;;;7.22;5.10;;;;;;;16.21;100.00;101141.28;682411;28;1111;-80
2022/08/31 01:21:53;;;;;;;6.80;4.90;;;;;;;16.16;100.00;101154.59;684678;28;4440;-80
2022/08/31 01:22:44;;;;;;;6.50;4.75;;;;;;;16.21;100.00;101138.66;685265;28;1163;-79
2022/08/31 01:23:16;;;;;;;8.90;5.07;;;;;;;16.25;100.00;101148.25;684773;28;1369;-80
2022/08/31 01:23:41;;;;;;;7.57;5.18;;;;;;;16.20;100.00;101145.72;682833;28;1264;-79
2022/08/31 01:24:03;;;;;;;7.35;4.93;;;;;;;16.11;100.00;101157.28;684885;28;1427;-80
2022/08/31 01:24:26;;;;;;;6.90;4.90;;;;;;;16.07;100.00;101146.84;685034;28;1244;-80
2022/08/31 01:24:49;;;;;;;6.72;4.85;;;;;;;16.05;100.00;101146.00;684699;28;4334;-79
2022/08/31 01:25:12;;;;;;;6.70;5.13;;;;;;;16.02;100.00;101140.78;684905;28;939;-80
2022/08/31 01:25:34;;;;;;;7.80;4.85;;;;;;;16.03;100.00;101147.81;682515;28;1371;-80
2022/08/31 01:25:57;;;;;;;8.45;5.43;;;;;;;16.09;100.00;101158.22;680479;29;1171;-79
2022/08/31 01:26:22;;;;;;;9.63;5.32;;;;;;;16.13;100.00;101146.72;679686;28;1369;-81
2022/08/31 01:26:43;;;;;;;8.38;4.88;;;;;;;16.09;100.00;101139.75;679107;29;1372;-80
2022/08/31 01:27:06;;;;;;;6.55;4.70;;;;;;;16.14;100.00;101141.44;679248;28;1300;-80
2022/08/31 01:27:32;;;;;;;6.43;4.82;;;;;;;16.09;100.00;101159.09;679302;28;1244;-80
2022/08/31 01:27:53;;;;;;;7.60;5.75;;;;;;;15.96;100.00;101141.78;681916;28;4290;-80
2022/08/31 01:28:14;;;;;;;7.18;5.40;;;;;;;15.96;100.00;101147.94;681441;28;957;-80
2022/08/31 01:28:35;;;;;;;8.63;5.22;;;;;;;16.05;100.00;101153.91;679764;28;1225;-79
2022/08/31 01:29:01;;;;;;;7.68;5.07;;;;;;;16.09;100.00;101152.94;684036;28;1391;-79
2022/08/31 01:29:21;;;;;;;7.18;4.80;;;;;;;16.02;100.00;101153.97;686778;28;1169;-80
2022/08/31 01:29:42;;;;;;;7.17;5.00;;;;;;;16.05;100.00;101144.25;688770;28;1371;-80
2022/08/31 01:30:09;;;;;;;7.60;5.15;;;;;;;16.06;100.00;101150.38;688276;28;1181;-81
2022/08/31 01:30:31;;;;;;;8.32;4.78;;;;;;;16.07;100.00;101146.84;687778;28;1433;-81
2022/08/31 01:31:05;;;;;;;8.15;4.82;;;;;;;16.09;100.00;101138.00;681946;28;4297;-81
2022/08/31 01:31:31;;;;;;;6.47;4.80;;;;;;;16.10;100.00;101146.78;679564;28;1299;-80
2022/08/31 01:31:51;;;;;;;7.80;5.20;;;;;;;16.08;100.00;101151.22;679610;28;1324;-79
2022/08/31 01:32:12;;;;;;;7.93;5.00;;;;;;;16.08;100.00;101148.59;683746;28;1241;-80
2022/08/31 01:32:32;;;;;;;7.57;4.83;;;;;;;16.06;100.00;101153.00;685634;28;1092;-80
2022/08/31 01:32:53;;;;;;;7.15;5.20;;;;;;;16.06;100.00;101159.19;686628;28;1329;-79
2022/08/31 01:33:14;;;;;;;7.43;4.97;;;;;;;16.09;100.00;101140.66;682777;28;1008;-80
2022/08/31 01:33:37;;;;;;;6.20;4.73;;;;;;;16.04;100.00;101141.63;679866;28;1264;-80
2022/08/31 01:33:58;;;;;;;7.53;4.95;;;;;;;16.00;100.00;101139.06;679602;28;4935;-79
2022/08/31 01:34:19;;;;;;;7.88;5.30;;;;;;;15.90;100.00;101139.28;679941;28;1090;-80
2022/08/31 01:34:40;;;;;;;7.80;5.45;;;;;;;15.83;100.00;101165.75;685902;28;1211;-80
2022/08/31 01:35:01;;;;;;;7.90;5.40;;;;;;;15.83;100.00;101155.19;685749;28;1060;-79
2022/08/31 01:35:21;;;;;;;8.23;4.93;;;;;;;15.86;100.00;101162.19;686125;28;1085;-80
2022/08/31 01:35:43;;;;;;;7.47;4.97;;;;;;;15.81;100.00;101169.28;689397;28;1174;-79
2022/08/31 01:36:07;;;;;;;6.53;4.82;;;;;;;15.79;100.00;101148.25;684031;28;1301;-80
2022/08/31 01:36:30;;;;;;;6.30;4.88;;;;;;;15.84;100.00;101158.72;684157;28;1548;-78
2022/08/31 01:36:51;;;;;;;6.45;4.60;;;;;;;15.88;100.00;101138.41;685068;28;4373;-80
2022/08/31 01:37:12;;;;;;;6.80;4.50;;;;;;;15.86;100.00;101130.53;685277;28;1440;-79
2022/08/31 01:37:33;;;;;;;7.78;5.13;;;;;;;15.92;100.00;101167.34;684491;28;1256;-79
2022/08/31 01:37:54;;;;;;;7.32;5.18;;;;;;;15.89;100.00;101142.81;679219;28;1317;-79
2022/08/31 01:38:14;;;;;;;7.50;5.15;;;;;;;15.73;100.00;101136.91;682147;28;1205;-79
2022/08/31 01:38:37;;;;;;;8.07;4.90;;;;;;;15.66;100.00;101141.44;682868;28;1485;-79
2022/08/31 01:38:58;;;;;;;8.32;5.30;;;;;;;15.55;100.00;101139.00;682772;28;5063;-79
2022/08/31 01:39:19;;;;;;;7.67;5.27;;;;;;;15.57;100.00;101147.72;684238;28;1208;-79
2022/08/31 01:39:40;;;;;;;7.53;5.47;;;;;;;15.51;100.00;101145.22;684027;28;4319;-80
2022/08/31 01:40:01;;;;;;;7.45;5.15;;;;;;;15.56;100.00;101146.00;685481;28;1230;-80
2022/08/31 01:40:34;;;;;;;8.63;5.30;;;;;;;15.54;100.00;101139.88;678451;28;1304;-79
2022/08/31 01:40:58;;;;;;;7.50;5.32;;;;;;;15.56;100.00;101159.19;680001;29;1053;-80
2022/08/31 01:41:20;;;;;;;7.45;5.20;;;;;;;15.61;100.00;101146.78;680195;28;1036;-79
2022/08/31 01:41:42;;;;;;;7.47;5.22;;;;;;;15.69;100.00;101140.50;682974;28;1408;-79
2022/08/31 01:42:03;;;;;;;7.50;5.63;;;;;;;15.55;100.00;101139.00;682930;28;1303;-78
2022/08/31 01:42:24;;;;;;;7.07;5.57;;;;;;;15.62;100.00;101152.94;685472;28;1287;-80
2022/08/31 01:42:45;;;;;;;7.57;5.32;;;;;;;15.63;100.00;101141.47;682872;28;4383;-80
2022/08/31 01:43:06;;;;;;;8.40;5.70;;;;;;;15.59;100.00;101158.25;686690;28;1414;-80
2022/08/31 01:43:29;;;;;;;7.20;5.63;;;;;;;15.56;100.00;101137.22;687772;28;2113;-79
2022/08/31 01:43:51;;;;;;;7.40;5.30;;;;;;;15.57;100.00;101154.78;682606;28;1401;-79
2022/08/31 01:44:16;;;;;;;6.85;5.13;;;;;;;15.56;100.00;101142.50;687028;28;1433;-79
2022/08/31 01:44:37;;;;;;;6.78;5.43;;;;;;;15.59;100.00;101145.94;685978;28;1123;-80
2022/08/31 01:45:05;;;;;;;7.32;5.35;;;;;;;15.54;100.00;101160.97;683715;28;1309;-78
2022/08/31 01:45:34;;;;;;;8.25;5.70;;;;;;;15.44;100.00;101138.31;677379;29;1276;-79
2022/08/31 01:45:55;;;;;;;9.10;5.90;;;;;;;15.39;100.00;101145.44;676585;29;4449;-79
2022/08/31 01:46:15;;;;;;;8.67;5.97;;;;;;;15.31;100.00;101145.53;674579;28;1295;-80
2022/08/31 01:46:36;;;;;;;7.67;5.60;;;;;;;15.25;100.00;101141.25;680522;28;1164;-80
2022/08/31 01:46:56;;;;;;;8.38;5.63;;;;;;;15.25;100.00;101164.97;679240;28;1214;-80
2022/08/31 01:47:17;;;;;;;7.50;5.80;;;;;;;15.16;100.00;101144.06;684999;28;1315;-79
2022/08/31 01:47:39;;;;;;;6.80;5.80;;;;;;;15.18;100.00;101176.50;685729;28;1410;-80
2022/08/31 01:48:00;;;;;;;7.78;5.90;;;;;;;15.12;100.00;101171.34;685540;28;1614;-79
2022/08/31 01:48:22;;;;;;;8.53;5.67;;;;;;;15.11;100.00;101166.94;681746;28;1478;-79
2022/08/31 01:48:44;;;;;;;6.75;5.57;;;;;;;15.18;100.00;101147.53;679564;28;4318;-79
2022/08/31 01:49:05;;;;;;;7.05;5.55;;;;;;;15.29;100.00;101139.44;681453;28;1390;-80
2022/08/31 01:49:26;;;;;;;7.18;5.53;;;;;;;15.36;100.00;101150.75;679695;28;1238;-79